Time;durP1;ratioP1;P1;durP2;ratioP2;P2;SDS_P1;SDS_P2;PMS_P1;PMS_P2;Temp;Humidity;BMP_temperature;BMP_pressure;BME280_temperature;BME280_humidity;BME280_pressure;Samples;Min_cycle;Max_cycle;Signal;HPM_P1;HPM_P2
2023/03/20 00:00:23;;;;;;;9.48;5.95;;;8.40;99.90;;;;;;5013333;28;20116;-75
2023/03/20 00:02:49;;;;;;;9.98;6.40;;;8.40;99.90;;;;;;5013293;28;20077;-75
2023/03/20 00:05:17;;;;;;;11.13;6.13;;;8.30;99.90;;;;;;4995587;28;20084;-75
2023/03/20 00:07:44;;;;;;;10.07;5.90;;;8.30;99.90;;;;;;4979622;28;20041;-75
2023/03/20 00:10:10;;;;;;;12.43;6.15;;;8.30;99.90;;;;;;4995570;28;20053;-75
2023/03/20 00:12:36;;;;;;;9.63;5.32;;;8.30;99.90;;;;;;4995633;28;20124;-74
2023/03/20 00:15:05;;;;;;;7.40;5.38;;;8.30;99.90;;;;;;4995239;28;20042;-75
2023/03/20 00:17:31;;;;;;;9.18;5.85;;;8.30;99.90;;;;;;4995751;28;20045;-75
2023/03/20 00:19:56;;;;;;;8.65;5.15;;;8.30;99.90;;;;;;5021400;22;20041;-70
2023/03/20 00:22:22;;;;;;;11.05;6.50;;;8.30;99.90;;;;;;5032442;28;20542;-70
2023/03/20 00:24:47;;;;;;;11.32;6.30;;;8.20;99.90;;;;;;5014394;28;20050;-70
2023/03/20 00:27:15;;;;;;;11.07;5.85;;;8.20;99.90;;;;;;5032367;28;20515;-70
2023/03/20 00:29:41;;;;;;;9.63;7.00;;;8.20;99.90;;;;;;5014475;28;20087;-70
2023/03/20 00:32:13;;;;;;;10.27;5.85;;;8.20;99.90;;;;;;5032457;28;20116;-70
2023/03/20 00:34:39;;;;;;;10.95;5.47;;;8.10;99.90;;;;;;5031946;28;20052;-71
2023/03/20 00:37:05;;;;;;;8.27;5.05;;;8.20;99.90;;;;;;5014457;28;20120;-71
2023/03/20 00:39:31;;;;;;;7.97;4.63;;;8.10;99.90;;;;;;5014298;28;20037;-71
2023/03/20 00:42:01;;;;;;;13.63;5.70;;;8.10;99.90;;;;;;5014707;28;20520;-70
2023/03/20 00:44:37;;;;;;;7.07;5.10;;;8.10;99.90;;;;;;5032124;28;20037;-70
2023/03/20 00:47:15;;;;;;;9.23;5.60;;;8.10;99.90;;;;;;5032315;28;20448;-70
2023/03/20 00:49:41;;;;;;;10.10;5.28;;;8.10;99.90;;;;;;5014360;28;20084;-71
2023/03/20 00:52:11;;;;;;;11.48;5.68;;;8.00;99.90;;;;;;5014437;28;20048;-71
2023/03/20 00:54:37;;;;;;;11.82;5.47;;;8.10;99.90;;;;;;4997736;28;20045;-70
2023/03/20 00:57:11;;;;;;;10.30;6.05;;;8.00;99.90;;;;;;5032128;28;20536;-70
2023/03/20 00:59:41;;;;;;;9.30;5.50;;;8.10;99.90;;;;;;5031969;28;20041;-70
2023/03/20 01:02:07;;;;;;;14.02;6.00;;;8.10;99.90;;;;;;5031943;28;20563;-71
2023/03/20 01:04:39;;;;;;;12.00;5.78;;;8.00;99.90;;;;;;5014235;28;20099;-71
2023/03/20 01:07:06;;;;;;;11.83;6.00;;;8.10;99.90;;;;;;5031983;28;20113;-71
2023/03/20 01:09:32;;;;;;;13.18;6.03;;;8.10;99.90;;;;;;5014195;28;20049;-70
2023/03/20 01:11:59;;;;;;;11.27;6.03;;;8.10;99.90;;;;;;5031831;28;20389;-70
2023/03/20 01:14:25;;;;;;;8.85;5.10;;;8.10;99.90;;;;;;5031458;28;20046;-70
2023/03/20 01:16:51;;;;;;;10.68;5.70;;;8.10;99.90;;;;;;5031748;28;20413;-70
2023/03/20 01:19:16;;;;;;;13.48;6.95;;;8.10;99.90;;;;;;5031973;28;20038;-70
2023/03/20 01:21:42;;;;;;;8.75;5.72;;;8.10;99.90;;;;;;5013809;28;20072;-70
2023/03/20 01:24:07;;;;;;;11.55;6.05;;;8.10;99.90;;;;;;5031463;28;20041;-70
2023/03/20 01:26:35;;;;;;;11.77;5.28;;;8.10;99.90;;;;;;5031602;28;20042;-70
2023/03/20 01:29:02;;;;;;;10.52;5.70;;;8.10;99.90;;;;;;5031835;28;20045;-70
2023/03/20 01:31:27;;;;;;;11.02;4.93;;;8.10;99.90;;;;;;5013846;28;20409;-71
2023/03/20 01:33:53;;;;;;;15.57;6.03;;;8.10;99.90;;;;;;5031311;28;20038;-71
2023/03/20 01:36:21;;;;;;;11.30;6.20;;;8.10;99.90;;;;;;5013853;28;20092;-71
2023/03/20 01:38:53;;;;;;;13.52;6.07;;;8.10;99.90;;;;;;5013889;28;20041;-71
2023/03/20 01:41:20;;;;;;;15.20;5.43;;;8.10;99.90;;;;;;5031545;28;20044;-71
2023/03/20 01:43:45;;;;;;;10.60;6.07;;;8.10;99.90;;;;;;5013628;28;20058;-70
2023/03/20 01:46:18;;;;;;;14.98;6.28;;;8.10;99.90;;;;;;5031522;28;20053;-71
2023/03/20 01:48:50;;;;;;;13.68;5.97;;;8.10;99.90;;;;;;5031755;28;20045;-71
2023/03/20 01:51:17;;;;;;;12.95;5.43;;;8.10;99.90;;;;;;5035378;28;20049;-71
2023/03/20 01:53:45;;;;;;;11.90;5.60;;;8.10;99.90;;;;;;5035114;28;20037;-71
2023/03/20 01:56:13;;;;;;;8.70;5.63;;;8.00;99.90;;;;;;5017819;28;20386;-71
2023/03/20 01:58:43;;;;;;;11.60;5.60;;;8.10;99.90;;;;;;5035480;28;20044;-70
2023/03/20 02:01:12;;;;;;;10.00;6.53;;;8.10;99.90;;;;;;5017784;28;20048;-71
2023/03/20 02:03:40;;;;;;;12.43;5.80;;;8.10;99.90;;;;;;5035132;28;20064;-71
2023/03/20 02:06:07;;;;;;;17.08;6.35;;;8.10;99.90;;;;;;5034891;28;20099;-71
2023/03/20 02:08:39;;;;;;;16.10;5.93;;;8.10;99.90;;;;;;5035124;28;20073;-71
2023/03/20 02:11:05;;;;;;;13.13;7.25;;;8.10;99.90;;;;;;5017328;28;20120;-71
2023/03/20 02:13:32;;;;;;;13.60;6.70;;;8.10;99.90;;;;;;5000677;28;20465;-71
2023/03/20 02:16:13;;;;;;;15.85;6.70;;;8.10;99.90;;;;;;5017120;28;20037;-71
2023/03/20 02:18:42;;;;;;;17.33;7.38;;;8.10;99.90;;;;;;5017164;28;20096;-72
2023/03/20 02:21:49;;;;;;;17.70;7.32;;;8.20;99.90;;;;;;5016925;28;20083;-71
2023/03/20 02:24:30;;;;;;;17.55;7.18;;;8.10;99.90;;;;;;5034650;28;20049;-70
2023/03/20 02:27:11;;;;;;;19.90;8.18;;;8.10;99.90;;;;;;5000800;28;20061;-70
2023/03/20 02:30:07;;;;;;;19.27;8.95;;;8.20;99.90;;;;;;5034764;28;20516;-71
2023/03/20 02:33:10;;;;;;;18.30;8.80;;;8.10;99.90;;;;;;5034757;28;20042;-71
2023/03/20 02:36:03;;;;;;;16.58;8.82;;;8.20;99.90;;;;;;5016515;28;20052;-71
2023/03/20 02:38:55;;;;;;;18.00;8.17;;;8.20;99.90;;;;;;5034771;28;20037;-70
2023/03/20 02:41:53;;;;;;;18.25;8.65;;;8.20;99.90;;;;;;5034494;28;20041;-71
2023/03/20 02:44:39;;;;;;;14.27;7.72;;;8.20;99.90;;;;;;5034411;28;20060;-70
2023/03/20 02:47:20;;;;;;;18.50;7.80;;;8.20;99.90;;;;;;5034489;28;20501;-71
2023/03/20 02:50:13;;;;;;;19.42;8.55;;;8.20;99.90;;;;;;5016459;28;20037;-71
2023/03/20 02:52:52;;;;;;;15.95;8.77;;;8.20;99.90;;;;;;5034269;28;20557;-70
2023/03/20 02:55:33;;;;;;;18.83;7.55;;;8.20;99.90;;;;;;5033907;28;20521;-70
2023/03/20 02:58:11;;;;;;;16.65;7.53;;;8.20;99.90;;;;;;5034324;28;20124;-70
2023/03/20 03:00:57;;;;;;;18.48;9.43;;;8.20;99.90;;;;;;5033458;28;20378;-71
2023/03/20 03:03:33;;;;;;;16.88;7.50;;;8.20;99.90;;;;;;5016428;28;20037;-70
2023/03/20 03:06:05;;;;;;;17.38;9.23;;;8.20;99.90;;;;;;5034063;28;20037;-71
2023/03/20 03:08:37;;;;;;;20.20;8.27;;;8.20;99.90;;;;;;5016341;28;20056;-70
2023/03/20 03:11:06;;;;;;;17.30;7.18;;;8.20;99.90;;;;;;5034141;28;20276;-70
2023/03/20 03:13:36;;;;;;;21.98;8.75;;;8.20;99.90;;;;;;5016266;28;20041;-71
2023/03/20 03:16:30;;;;;;;18.38;8.23;;;8.30;99.90;;;;;;5016060;28;20092;-71
2023/03/20 03:19:03;;;;;;;20.38;8.43;;;8.30;99.90;;;;;;5013432;28;20052;-71
2023/03/20 03:21:31;;;;;;;18.95;8.50;;;8.30;99.90;;;;;;5015893;28;20049;-71
2023/03/20 03:23:56;;;;;;;16.42;8.68;;;8.30;99.90;;;;;;5015944;28;20072;-70
2023/03/20 03:26:31;;;;;;;17.58;9.52;;;8.30;99.90;;;;;;5033825;28;20118;-71
2023/03/20 03:29:04;;;;;;;29.00;12.60;;;8.30;99.90;;;;;;5033737;28;20045;-71
2023/03/20 03:31:31;;;;;;;19.45;9.50;;;8.30;99.90;;;;;;5015719;28;20409;-71
2023/03/20 03:33:59;;;;;;;20.20;10.25;;;8.30;99.90;;;;;;5015286;28;20066;-70
2023/03/20 03:36:48;;;;;;;18.65;9.85;;;8.30;99.90;;;;;;5015784;28;20390;-71
2023/03/20 03:39:36;;;;;;;18.10;9.30;;;8.30;99.90;;;;;;5015692;28;20037;-71
2023/03/20 03:42:05;;;;;;;20.23;10.45;;;8.30;99.90;;;;;;5015548;28;20033;-71
2023/03/20 03:44:39;;;;;;;19.80;9.55;;;8.30;99.90;;;;;;5033216;28;20124;-71
2023/03/20 03:47:11;;;;;;;24.92;10.45;;;8.30;99.90;;;;;;5015779;28;20128;-71
2023/03/20 03:49:42;;;;;;;20.52;10.32;;;8.30;99.90;;;;;;5015594;28;20148;-71
2023/03/20 03:52:12;;;;;;;23.35;10.15;;;8.30;99.90;;;;;;5033231;28;20037;-71
2023/03/20 03:54:46;;;;;;;24.23;10.15;;;8.30;99.90;;;;;;5015137;28;20144;-71
2023/03/20 03:57:15;;;;;;;17.42;9.77;;;8.30;99.90;;;;;;5033201;28;20144;-70
2023/03/20 03:59:44;;;;;;;23.35;11.15;;;8.30;99.90;;;;;;5015227;28;20033;-71
2023/03/20 04:02:11;;;;;;;18.20;9.90;;;8.30;99.90;;;;;;5032998;28;20047;-71
2023/03/20 04:04:42;;;;;;;22.90;11.13;;;8.30;99.90;;;;;;5032625;28;20497;-71
2023/03/20 04:07:07;;;;;;;19.92;10.18;;;8.30;99.90;;;;;;5032904;28;20041;-71
2023/03/20 04:09:33;;;;;;;21.85;9.57;;;8.30;99.90;;;;;;4998829;28;20048;-71
2023/03/20 04:11:59;;;;;;;18.48;9.70;;;8.30;99.90;;;;;;5032449;28;20038;-71
2023/03/20 04:14:25;;;;;;;16.98;9.32;;;8.30;99.90;;;;;;5014085;28;20124;-71
2023/03/20 04:16:50;;;;;;;16.13;9.95;;;8.30;99.90;;;;;;5032608;28;20743;-70
2023/03/20 04:19:16;;;;;;;24.88;9.63;;;8.30;99.90;;;;;;5015202;28;20037;-70
2023/03/20 04:21:41;;;;;;;15.98;9.70;;;8.30;99.90;;;;;;5032494;28;20033;-71
2023/03/20 04:24:07;;;;;;;20.27;9.30;;;8.30;99.90;;;;;;5014757;28;20044;-71
2023/03/20 04:26:32;;;;;;;15.70;9.05;;;8.30;99.90;;;;;;5014900;28;20038;-70
2023/03/20 04:28:58;;;;;;;19.02;9.63;;;8.30;99.90;;;;;;4998788;28;20045;-71
2023/03/20 04:31:24;;;;;;;15.93;8.35;;;8.30;99.90;;;;;;5032311;28;20179;-71
2023/03/20 04:33:50;;;;;;;18.58;8.70;;;8.30;99.90;;;;;;5014457;28;20071;-71
2023/03/20 04:36:15;;;;;;;13.98;8.77;;;8.30;99.90;;;;;;5031990;28;20037;-71
2023/03/20 04:38:41;;;;;;;18.13;9.43;;;8.30;99.90;;;;;;5014464;28;20504;-71
2023/03/20 04:41:07;;;;;;;15.45;9.48;;;8.30;99.90;;;;;;5032178;28;20037;-70
2023/03/20 04:43:33;;;;;;;16.80;9.02;;;8.30;99.90;;;;;;5032019;28;20037;-71
2023/03/20 04:45:58;;;;;;;15.18;9.02;;;8.30;99.90;;;;;;5032084;28;20043;-71
2023/03/20 04:48:24;;;;;;;19.20;9.02;;;8.30;99.90;;;;;;5014484;28;20092;-70
2023/03/20 04:50:49;;;;;;;13.90;8.38;;;8.30;99.90;;;;;;5014633;28;20033;-70
2023/03/20 04:53:16;;;;;;;17.83;9.25;;;8.30;99.90;;;;;;5014421;28;20560;-70
2023/03/20 04:55:43;;;;;;;16.05;9.10;;;8.30;99.90;;;;;;5031850;28;20524;-70
2023/03/20 04:58:09;;;;;;;15.45;8.65;;;8.30;99.90;;;;;;5032109;28;20041;-71
2023/03/20 05:00:34;;;;;;;20.77;8.82;;;8.30;99.90;;;;;;5014355;28;20037;-71
2023/03/20 05:03:00;;;;;;;19.23;8.07;;;8.30;99.90;;;;;;5031931;28;20035;-71
2023/03/20 05:05:26;;;;;;;14.57;8.15;;;8.30;99.90;;;;;;5031572;28;20041;-71
2023/03/20 05:07:52;;;;;;;15.38;9.18;;;8.30;99.90;;;;;;5032022;28;20037;-70
2023/03/20 05:10:18;;;;;;;23.25;8.68;;;8.30;99.90;;;;;;5014219;28;20041;-70
2023/03/20 05:12:44;;;;;;;13.75;8.05;;;8.30;99.90;;;;;;5032004;28;20045;-70
2023/03/20 05:15:10;;;;;;;17.75;7.63;;;8.30;99.90;;;;;;5013721;28;20128;-70
2023/03/20 05:17:38;;;;;;;15.10;7.63;;;8.20;99.90;;;;;;5031817;28;20041;-73
2023/03/20 05:20:05;;;;;;;16.50;7.57;;;8.30;99.90;;;;;;4997520;28;20044;-72
2023/03/20 05:22:31;;;;;;;15.45;7.40;;;8.30;99.90;;;;;;5014003;28;20560;-72
2023/03/20 05:24:56;;;;;;;14.35;6.95;;;8.30;99.90;;;;;;5013370;28;20049;-73
2023/03/20 05:27:22;;;;;;;13.98;7.63;;;8.30;99.90;;;;;;5031757;28;20057;-72
2023/03/20 05:29:47;;;;;;;13.27;7.38;;;8.30;99.90;;;;;;5013870;28;20497;-72
2023/03/20 05:32:13;;;;;;;15.70;8.63;;;8.30;99.90;;;;;;5014138;28;20520;-72
2023/03/20 05:34:39;;;;;;;14.05;6.43;;;8.30;99.90;;;;;;5031429;28;20041;-72
2023/03/20 05:37:04;;;;;;;16.92;8.52;;;8.30;99.90;;;;;;5013799;28;20501;-72
2023/03/20 05:39:30;;;;;;;15.40;6.82;;;8.30;99.90;;;;;;5013842;28;20042;-72
2023/03/20 05:41:56;;;;;;;16.98;8.55;;;8.30;99.90;;;;;;5013756;28;20409;-72
2023/03/20 05:44:21;;;;;;;16.35;7.63;;;8.20;99.90;;;;;;5013562;28;20042;-72
2023/03/20 05:46:47;;;;;;;17.40;7.85;;;8.30;99.90;;;;;;5031466;28;20048;-72
2023/03/20 05:49:12;;;;;;;17.45;7.78;;;8.30;99.90;;;;;;4997458;28;20046;-72
2023/03/20 05:51:38;;;;;;;15.95;7.85;;;8.30;99.90;;;;;;5013659;28;20042;-72
2023/03/20 05:54:03;;;;;;;13.68;8.18;;;8.30;99.90;;;;;;5013658;28;20100;-72
2023/03/20 05:56:29;;;;;;;14.15;8.15;;;8.30;99.90;;;;;;5013965;28;20560;-72
2023/03/20 05:58:55;;;;;;;16.52;8.63;;;8.30;99.90;;;;;;5031416;28;20076;-72
2023/03/20 06:01:21;;;;;;;14.35;7.63;;;8.20;99.90;;;;;;5031321;28;20064;-72
2023/03/20 06:03:47;;;;;;;17.00;8.05;;;8.30;99.90;;;;;;5013414;28;20049;-72
2023/03/20 06:06:14;;;;;;;13.10;7.72;;;8.30;99.90;;;;;;5013474;28;20053;-72
2023/03/20 06:08:40;;;;;;;15.02;8.15;;;8.30;99.90;;;;;;4997231;28;20033;-72
2023/03/20 06:11:06;;;;;;;16.55;8.63;;;8.30;99.90;;;;;;5013475;28;20083;-72
2023/03/20 06:13:31;;;;;;;18.38;8.40;;;8.30;99.90;;;;;;5031027;28;20035;-72
2023/03/20 06:15:57;;;;;;;15.98;8.45;;;8.30;99.90;;;;;;5031013;28;20448;-72
2023/03/20 06:18:22;;;;;;;18.25;8.80;;;8.20;99.90;;;;;;5013432;28;20073;-73
2023/03/20 06:20:52;;;;;;;15.10;8.80;;;8.20;99.90;;;;;;5036721;22;20038;-74
2023/03/20 06:23:19;;;;;;;19.88;9.13;;;8.30;99.90;;;;;;5013134;28;20049;-73
2023/03/20 06:25:45;;;;;;;18.85;9.15;;;8.30;99.90;;;;;;5030582;28;20412;-73
2023/03/20 06:28:10;;;;;;;19.58;9.07;;;8.30;99.90;;;;;;5012758;28;20037;-73
2023/03/20 06:30:36;;;;;;;17.80;8.95;;;8.30;99.90;;;;;;5030842;28;20038;-73
2023/03/20 06:33:02;;;;;;;17.00;9.70;;;8.30;99.90;;;;;;5030969;28;20564;-73
2023/03/20 06:35:30;;;;;;;16.17;9.32;;;8.30;99.90;;;;;;5030835;28;20041;-73
2023/03/20 06:37:56;;;;;;;18.67;9.90;;;8.30;99.90;;;;;;5034535;28;20046;-73
2023/03/20 06:40:22;;;;;;;18.85;9.77;;;8.40;99.90;;;;;;5016833;28;20053;-73
2023/03/20 06:42:47;;;;;;;18.23;9.48;;;8.40;99.90;;;;;;5016668;28;20038;-73
2023/03/20 06:45:13;;;;;;;19.08;9.52;;;8.40;99.90;;;;;;5016512;28;20053;-73
2023/03/20 06:47:38;;;;;;;16.88;9.85;;;8.40;99.90;;;;;;5034888;28;20040;-74
2023/03/20 06:50:04;;;;;;;18.15;10.18;;;8.40;99.90;;;;;;5016430;28;20124;-73
2023/03/20 06:52:30;;;;;;;17.70;9.15;;;8.50;99.90;;;;;;5016737;28;20051;-73
2023/03/20 06:54:56;;;;;;;17.98;9.30;;;8.50;99.90;;;;;;5033481;28;20042;-74
2023/03/20 06:57:23;;;;;;;18.95;8.82;;;8.50;99.90;;;;;;5034066;28;20038;-76
2023/03/20 06:59:48;;;;;;;19.13;9.82;;;8.50;99.90;;;;;;5015826;28;20040;-74
2023/03/20 07:02:15;;;;;;;15.55;8.93;;;8.50;99.90;;;;;;5031552;28;20378;-74
2023/03/20 07:04:40;;;;;;;16.13;9.13;;;8.50;99.90;;;;;;5013918;28;20509;-74
2023/03/20 07:07:06;;;;;;;22.23;10.30;;;8.50;99.90;;;;;;5034154;28;20048;-74
2023/03/20 07:09:32;;;;;;;17.33;9.52;;;8.50;99.90;;;;;;5034054;28;20103;-73
2023/03/20 07:11:58;;;;;;;19.38;8.98;;;8.60;99.90;;;;;;5033966;28;20042;-74
2023/03/20 07:14:23;;;;;;;21.05;8.90;;;8.60;99.90;;;;;;5015734;28;20075;-73
2023/03/20 07:16:49;;;;;;;15.15;9.13;;;8.60;99.90;;;;;;5016500;28;20045;-73
2023/03/20 07:19:15;;;;;;;16.25;9.73;;;8.60;99.90;;;;;;5016098;28;20073;-74
2023/03/20 07:21:41;;;;;;;16.90;9.75;;;8.60;99.90;;;;;;5015878;28;20046;-74
2023/03/20 07:24:07;;;;;;;18.08;10.43;;;8.60;99.90;;;;;;5015653;28;20037;-74
2023/03/20 07:26:32;;;;;;;20.15;9.70;;;8.60;99.90;;;;;;5033738;28;20496;-75
2023/03/20 07:28:58;;;;;;;15.65;9.23;;;8.70;99.90;;;;;;5033522;28;20082;-73
2023/03/20 07:31:25;;;;;;;16.92;9.95;;;8.80;99.90;;;;;;5015754;28;20039;-74
2023/03/20 07:33:51;;;;;;;20.08;9.25;;;8.80;99.90;;;;;;5015382;28;20053;-73
2023/03/20 07:36:17;;;;;;;15.68;9.50;;;8.90;99.90;;;;;;5033409;28;20042;-74
2023/03/20 07:38:43;;;;;;;21.08;11.40;;;8.90;99.90;;;;;;5015664;28;20500;-74
2023/03/20 07:41:09;;;;;;;21.27;10.10;;;8.90;99.90;;;;;;5015668;28;20033;-73
2023/03/20 07:43:34;;;;;;;15.40;9.90;;;9.00;99.90;;;;;;5015331;28;20068;-73
2023/03/20 07:46:04;;;;;;;20.85;10.60;;;9.00;99.90;;;;;;5033477;28;20037;-73
2023/03/20 07:48:30;;;;;;;17.63;9.73;;;9.10;99.90;;;;;;5033259;28;20103;-74
2023/03/20 07:50:55;;;;;;;18.00;9.43;;;9.10;99.90;;;;;;5015447;28;20489;-73
2023/03/20 07:53:21;;;;;;;18.17;11.18;;;9.20;99.90;;;;;;5033103;28;20045;-73
2023/03/20 07:55:47;;;;;;;19.95;10.77;;;9.20;99.90;;;;;;5015307;28;20033;-74
2023/03/20 07:58:12;;;;;;;18.48;9.80;;;9.30;99.90;;;;;;5015358;28;20092;-74
2023/03/20 08:00:38;;;;;;;19.27;9.73;;;9.30;99.90;;;;;;5015312;28;20095;-73
2023/03/20 08:03:03;;;;;;;18.38;10.43;;;9.40;99.90;;;;;;5033043;28;20041;-74
2023/03/20 08:05:29;;;;;;;23.20;10.88;;;9.40;99.90;;;;;;5014908;28;20056;-74
2023/03/20 08:07:55;;;;;;;20.45;10.35;;;9.40;99.90;;;;;;5032963;28;20044;-75
2023/03/20 08:10:21;;;;;;;16.58;10.05;;;9.40;99.90;;;;;;5032966;28;20063;-74
2023/03/20 08:12:46;;;;;;;24.75;10.48;;;9.50;99.90;;;;;;5032709;28;20045;-74
2023/03/20 08:15:12;;;;;;;19.15;10.15;;;9.50;99.90;;;;;;5032503;28;20132;-74
2023/03/20 08:17:42;;;;;;;18.83;9.38;;;9.60;99.90;;;;;;5032752;28;20428;-74
2023/03/20 08:20:08;;;;;;;18.35;10.05;;;9.70;99.90;;;;;;5014782;28;20045;-74
2023/03/20 08:22:34;;;;;;;21.75;10.32;;;9.90;99.90;;;;;;5032781;28;20042;-74
2023/03/20 08:24:59;;;;;;;17.27;9.82;;;9.90;99.90;;;;;;5014561;28;20047;-74
2023/03/20 08:27:25;;;;;;;16.85;10.02;;;9.90;99.90;;;;;;5032531;28;20077;-74
2023/03/20 08:29:50;;;;;;;22.00;10.85;;;9.90;99.90;;;;;;5032731;28;20037;-74
2023/03/20 08:32:16;;;;;;;25.05;10.52;;;9.80;99.90;;;;;;5032540;28;20033;-74
2023/03/20 08:34:42;;;;;;;22.00;11.00;;;9.80;99.90;;;;;;5032182;28;20045;-73
2023/03/20 08:37:08;;;;;;;21.40;10.25;;;9.80;99.90;;;;;;5032443;28;20128;-74
2023/03/20 08:39:34;;;;;;;21.77;10.30;;;9.80;99.90;;;;;;5014627;28;20124;-74
2023/03/20 08:42:00;;;;;;;18.55;9.82;;;9.80;99.90;;;;;;5032072;28;20595;-74
2023/03/20 08:44:25;;;;;;;18.90;10.02;;;9.80;99.90;;;;;;5032207;28;20134;-74
2023/03/20 08:46:53;;;;;;;17.40;10.38;;;9.80;99.90;;;;;;5032316;28;20047;-74
2023/03/20 08:49:19;;;;;;;22.00;11.38;;;9.80;99.90;;;;;;5014654;28;20080;-74
2023/03/20 08:51:45;;;;;;;22.35;11.27;;;9.80;99.90;;;;;;5032130;28;20037;-74
2023/03/20 08:54:11;;;;;;;19.38;10.75;;;9.80;99.90;;;;;;5031779;28;20053;-74
2023/03/20 08:56:36;;;;;;;17.55;9.77;;;9.80;99.90;;;;;;5031949;28;20497;-74
2023/03/20 08:59:02;;;;;;;21.23;9.80;;;9.80;99.90;;;;;;5031582;28;20508;-74
2023/03/20 09:01:28;;;;;;;22.33;10.88;;;9.90;99.90;;;;;;5031867;28;20068;-74
2023/03/20 09:03:54;;;;;;;20.40;10.23;;;9.90;99.90;;;;;;5013951;28;20155;-75
2023/03/20 09:06:20;;;;;;;17.17;9.05;;;10.00;99.90;;;;;;5014508;28;20107;-74
2023/03/20 09:08:46;;;;;;;21.98;10.05;;;10.10;99.90;;;;;;5031864;28;20459;-74
2023/03/20 09:11:11;;;;;;;18.20;9.25;;;10.20;99.90;;;;;;5031678;28;20068;-73
2023/03/20 09:13:37;;;;;;;21.95;10.88;;;10.20;99.90;;;;;;5031839;28;20033;-73
2023/03/20 09:16:03;;;;;;;18.77;10.20;;;10.30;99.90;;;;;;5031827;28;20087;-74
2023/03/20 09:18:28;;;;;;;15.20;8.40;;;10.40;99.90;;;;;;5031876;28;20108;-74
2023/03/20 09:20:55;;;;;;;18.27;9.57;;;10.40;99.90;;;;;;5031613;28;20413;-73
2023/03/20 09:23:21;;;;;;;17.95;9.73;;;10.50;99.90;;;;;;5031416;28;20382;-74
2023/03/20 09:25:46;;;;;;;16.95;9.45;;;10.60;99.90;;;;;;5013732;28;20091;-74
2023/03/20 09:28:12;;;;;;;16.23;8.77;;;10.70;99.90;;;;;;5014033;28;20455;-74
2023/03/20 09:30:38;;;;;;;23.42;10.07;;;10.70;99.90;;;;;;5014158;28;20054;-74
2023/03/20 09:33:03;;;;;;;17.65;9.13;;;10.80;99.90;;;;;;5013940;28;20073;-74
2023/03/20 09:35:29;;;;;;;18.52;9.02;;;10.90;99.90;;;;;;5013545;28;20048;-74
2023/03/20 09:37:55;;;;;;;18.67;8.75;;;11.00;99.90;;;;;;5031490;28;20033;-74
2023/03/20 09:40:42;;;;;;;16.35;9.70;;;11.00;99.90;;;;;;5013691;28;20087;-74
2023/03/20 09:43:22;;;;;;;17.30;9.13;;;11.00;99.90;;;;;;5013741;28;20068;-74
2023/03/20 09:45:57;;;;;;;14.25;8.48;;;11.20;99.90;;;;;;5013923;28;20049;-73
2023/03/20 09:48:31;;;;;;;16.58;8.90;;;11.30;99.90;;;;;;5014029;28;20049;-74
2023/03/20 09:51:17;;;;;;;14.07;7.40;;;11.30;99.90;;;;;;5014011;28;20405;-74
2023/03/20 09:53:48;;;;;;;19.33;9.05;;;11.30;99.90;;;;;;5013529;28;20069;-74
2023/03/20 09:56:19;;;;;;;14.52;8.57;;;11.20;99.90;;;;;;4997460;28;20124;-74
2023/03/20 09:58:59;;;;;;;20.13;8.75;;;11.30;99.90;;;;;;5031363;28;20045;-74
2023/03/20 10:01:30;;;;;;;15.73;7.22;;;11.40;99.90;;;;;;5031470;28;20053;-74
2023/03/20 10:04:03;;;;;;;13.23;7.82;;;11.40;99.90;;;;;;5031194;28;20045;-74
2023/03/20 10:06:28;;;;;;;;;;;11.40;99.90;;;;;;5031943;28;20421;-74
2023/03/20 10:08:54;;;;;;;14.48;7.50;;;11.40;99.90;;;;;;5031265;28;19978;-74
2023/03/20 10:11:41;;;;;;;14.65;7.53;;;11.40;99.90;;;;;;5033803;28;20033;-74
2023/03/20 10:14:21;;;;;;;14.20;8.07;;;11.50;99.90;;;;;;5034828;28;20132;-74
2023/03/20 10:17:03;;;;;;;14.00;8.50;;;11.60;99.90;;;;;;5035058;28;20520;-74
2023/03/20 10:19:31;;;;;;;15.57;7.47;;;11.60;99.90;;;;;;5015421;28;20639;-74
2023/03/20 10:22:01;;;;;;;13.82;7.65;;;11.70;99.90;;;;;;5034220;28;20048;-74
2023/03/20 10:24:41;;;;;;;16.80;7.55;;;11.60;99.90;;;;;;5034426;28;20081;-74
2023/03/20 10:27:35;;;;;;;11.02;6.65;;;11.60;99.90;;;;;;5016812;28;20041;-74
2023/03/20 10:30:13;;;;;;;16.60;7.90;;;11.50;99.90;;;;;;5034006;28;20049;-74
2023/03/20 10:32:55;;;;;;;17.58;8.43;;;11.40;99.90;;;;;;5034615;28;20077;-74
2023/03/20 10:35:36;;;;;;;14.65;8.10;;;11.40;99.90;;;;;;5034368;28;20072;-73
2023/03/20 10:38:22;;;;;;;14.15;8.20;;;11.40;99.90;;;;;;5034286;28;20125;-74
2023/03/20 10:40:49;;;;;;;17.38;9.52;;;11.40;99.90;;;;;;5034191;28;20045;-74
2023/03/20 10:43:22;;;;;;;14.98;8.52;;;11.30;99.90;;;;;;5034304;28;20034;-73
2023/03/20 10:46:12;;;;;;;17.08;9.82;;;11.30;99.90;;;;;;5016714;28;20405;-74
2023/03/20 10:49:01;;;;;;;19.60;10.07;;;11.20;99.90;;;;;;5034187;28;20048;-73
2023/03/20 10:51:46;;;;;;;14.95;9.75;;;11.10;99.90;;;;;;5016484;28;20049;-73
2023/03/20 10:54:29;;;;;;;13.95;9.80;;;11.00;99.90;;;;;;5033967;28;20096;-73
2023/03/20 10:56:59;;;;;;;20.65;10.85;;;10.90;99.90;;;;;;5033983;28;20030;-73
2023/03/20 10:59:25;;;;;;;18.58;11.13;;;11.00;99.90;;;;;;5033882;28;20033;-73
2023/03/20 11:01:51;;;;;;;18.55;10.93;;;11.00;99.90;;;;;;5015994;28;20127;-73
2023/03/20 11:04:17;;;;;;;17.80;10.80;;;11.00;99.90;;;;;;5034090;28;20109;-73
2023/03/20 11:07:05;;;;;;;16.05;9.48;;;11.20;99.90;;;;;;5016043;28;20128;-73
2023/03/20 11:09:31;;;;;;;14.05;9.93;;;11.20;99.90;;;;;;5033905;28;20095;-73
2023/03/20 11:11:58;;;;;;;17.83;10.13;;;11.20;99.90;;;;;;5033470;28;20099;-73
2023/03/20 11:14:31;;;;;;;15.77;10.95;;;11.40;99.90;;;;;;5033716;28;20091;-73
2023/03/20 11:17:00;;;;;;;21.65;10.52;;;11.40;99.90;;;;;;5033753;28;20092;-73
2023/03/20 11:19:26;;;;;;;20.00;10.10;;;11.40;99.90;;;;;;5033629;28;20513;-73
2023/03/20 11:21:55;;;;;;;18.38;8.82;;;11.30;99.90;;;;;;5032814;28;20119;-73
2023/03/20 11:24:41;;;;;;;15.48;8.15;;;11.30;99.90;;;;;;5033000;28;20041;-73
2023/03/20 11:27:12;;;;;;;17.50;9.32;;;11.20;99.90;;;;;;5033573;28;20140;-73
2023/03/20 11:29:40;;;;;;;13.80;9.15;;;11.20;99.90;;;;;;5033552;28;20033;-73
2023/03/20 11:32:16;;;;;;;14.65;8.57;;;11.30;99.90;;;;;;5033325;28;20051;-73
2023/03/20 11:34:42;;;;;;;15.63;7.15;;;11.30;99.90;;;;;;5032833;28;20247;-73
2023/03/20 11:37:27;;;;;;;11.80;7.20;;;11.30;99.90;;;;;;5033523;28;20520;-73
2023/03/20 11:39:58;;;;;;;15.00;7.18;;;11.30;99.90;;;;;;5033408;28;20049;-73
2023/03/20 11:42:27;;;;;;;12.65;5.65;;;11.20;99.90;;;;;;5033129;28;20037;-72
2023/03/20 11:45:01;;;;;;;9.13;4.75;;;11.20;99.90;;;;;;5013849;28;20045;-76
2023/03/20 11:47:31;;;;;;;7.40;5.32;;;11.30;99.90;;;;;;5032333;28;20065;-76
2023/03/20 11:50:00;;;;;;;10.23;5.55;;;11.30;99.90;;;;;;5015106;28;20068;-76
2023/03/20 11:52:38;;;;;;;12.00;4.75;;;11.30;99.90;;;;;;5015245;28;20046;-76
2023/03/20 11:55:31;;;;;;;8.30;5.30;;;11.30;99.90;;;;;;5014073;28;20049;-75
2023/03/20 11:57:59;;;;;;;11.23;5.57;;;11.20;99.90;;;;;;5015309;28;20043;-76
2023/03/20 12:00:33;;;;;;;13.85;5.90;;;11.20;99.90;;;;;;4999089;28;20041;-75
2023/03/20 12:02:59;;;;;;;13.02;5.20;;;11.20;99.90;;;;;;5014449;28;20077;-76
2023/03/20 12:05:30;;;;;;;10.65;4.80;;;11.30;99.90;;;;;;5014945;28;20527;-77
2023/03/20 12:08:16;;;;;;;9.40;5.20;;;11.10;99.90;;;;;;5015133;28;20072;-75
2023/03/20 12:10:49;;;;;;;10.07;4.30;;;11.10;99.90;;;;;;5014911;28;20049;-75
2023/03/20 12:13:28;;;;;;;10.35;4.50;;;11.10;99.90;;;;;;5015380;28;20404;-76
2023/03/20 12:15:59;;;;;;;10.05;4.50;;;10.90;99.90;;;;;;5013621;28;20084;-76
2023/03/20 12:18:31;;;;;;;11.27;4.10;;;11.00;99.90;;;;;;5014638;28;20087;-75
2023/03/20 12:21:08;;;;;;;6.10;4.00;;;10.90;99.90;;;;;;5013827;28;20501;-75
2023/03/20 12:23:39;;;;;;;9.98;4.57;;;10.80;99.90;;;;;;5014627;28;20052;-76
2023/03/20 12:26:14;;;;;;;11.88;4.13;;;10.80;99.90;;;;;;5013749;28;20052;-76
2023/03/20 12:28:52;;;;;;;9.82;4.30;;;10.80;99.90;;;;;;5014368;28;20116;-75
2023/03/20 12:31:35;;;;;;;9.52;4.47;;;10.70;99.90;;;;;;5014647;28;20538;-75
2023/03/20 12:34:14;;;;;;;12.45;4.53;;;10.60;99.90;;;;;;5031447;28;20045;-76
2023/03/20 12:36:46;;;;;;;7.03;4.22;;;10.60;99.90;;;;;;5014974;28;20420;-76
2023/03/20 12:39:16;;;;;;;11.25;4.18;;;10.60;99.90;;;;;;4998494;28;20076;-76
2023/03/20 12:42:07;;;;;;;7.43;4.35;;;10.60;99.90;;;;;;5014792;28;20056;-76
2023/03/20 12:44:51;;;;;;;12.43;4.40;;;10.50;99.90;;;;;;5014348;28;20057;-75
2023/03/20 12:47:47;;;;;;;9.13;5.85;;;10.50;99.90;;;;;;5014783;28;20604;-75
2023/03/20 12:50:38;;;;;;;13.65;5.40;;;10.50;99.90;;;;;;5014513;28;20037;-76
2023/03/20 12:53:26;;;;;;;11.68;5.55;;;10.40;99.90;;;;;;5011817;28;20064;-75
2023/03/20 12:56:35;;;;;;;7.28;4.43;;;10.50;99.90;;;;;;5013424;28;20053;-76
2023/03/20 12:59:15;;;;;;;9.55;4.72;;;10.50;99.90;;;;;;5010510;28;20103;-76